sensor_id;sensor_type;location;lat;lon;timestamp;temperature;humidity
19330;DHT22;9799;48.214;16.388;2023-04-06T00:02:51;5.50;81.10
19330;DHT22;9799;48.214;16.388;2023-04-06T00:06:13;5.60;81.60
19330;DHT22;9799;48.214;16.388;2023-04-06T00:09:34;5.50;81.80
19330;DHT22;9799;48.214;16.388;2023-04-06T00:12:57;5.40;82.50
19330;DHT22;9799;48.214;16.388;2023-04-06T00:16:19;5.30;83.10
19330;DHT22;9799;48.214;16.388;2023-04-06T00:19:40;5.10;83.70
19330;DHT22;9799;48.214;16.388;2023-04-06T00:23:01;5.20;83.90
19330;DHT22;9799;48.214;16.388;2023-04-06T00:26:23;5.20;84.10
19330;DHT22;9799;48.214;16.388;2023-04-06T00:29:45;5.10;83.90
19330;DHT22;9799;48.214;16.388;2023-04-06T00:33:07;5.20;83.70
19330;DHT22;9799;48.214;16.388;2023-04-06T00:36:28;5.00;83.20
19330;DHT22;9799;48.214;16.388;2023-04-06T00:39:49;5.00;83.20
19330;DHT22;9799;48.214;16.388;2023-04-06T00:43:11;5.00;83.10
19330;DHT22;9799;48.214;16.388;2023-04-06T00:46:35;5.00;83.10
19330;DHT22;9799;48.214;16.388;2023-04-06T00:49:56;4.90;83.30
19330;DHT22;9799;48.214;16.388;2023-04-06T00:53:17;4.90;82.90
19330;DHT22;9799;48.214;16.388;2023-04-06T00:56:38;4.90;83.20
19330;DHT22;9799;48.214;16.388;2023-04-06T01:00:00;4.80;83.10
19330;DHT22;9799;48.214;16.388;2023-04-06T01:03:23;4.80;83.30
19330;DHT22;9799;48.214;16.388;2023-04-06T01:06:44;4.80;83.20
19330;DHT22;9799;48.214;16.388;2023-04-06T01:10:06;4.80;83.40
19330;DHT22;9799;48.214;16.388;2023-04-06T01:13:27;4.80;83.70
19330;DHT22;9799;48.214;16.388;2023-04-06T01:16:50;4.70;84.10
19330;DHT22;9799;48.214;16.388;2023-04-06T01:20:12;4.90;83.80
19330;DHT22;9799;48.214;16.388;2023-04-06T01:23:35;5.00;83.40
19330;DHT22;9799;48.214;16.388;2023-04-06T01:26:56;4.90;83.50
19330;DHT22;9799;48.214;16.388;2023-04-06T01:30:17;4.80;83.40
19330;DHT22;9799;48.214;16.388;2023-04-06T01:33:39;4.90;83.50
19330;DHT22;9799;48.214;16.388;2023-04-06T01:37:00;4.70;83.20
19330;DHT22;9799;48.214;16.388;2023-04-06T01:40:23;4.50;84.10
19330;DHT22;9799;48.214;16.388;2023-04-06T01:43:45;4.60;84.70
19330;DHT22;9799;48.214;16.388;2023-04-06T01:47:06;4.70;83.60
19330;DHT22;9799;48.214;16.388;2023-04-06T01:50:27;4.80;83.80
19330;DHT22;9799;48.214;16.388;2023-04-06T01:53:49;4.70;83.40
19330;DHT22;9799;48.214;16.388;2023-04-06T01:57:11;4.70;83.70
19330;DHT22;9799;48.214;16.388;2023-04-06T02:00:32;4.70;83.20
19330;DHT22;9799;48.214;16.388;2023-04-06T02:03:53;4.70;83.70
19330;DHT22;9799;48.214;16.388;2023-04-06T02:07:15;4.70;83.40
19330;DHT22;9799;48.214;16.388;2023-04-06T02:10:36;4.80;82.90
19330;DHT22;9799;48.214;16.388;2023-04-06T02:13:58;4.70;83.10
19330;DHT22;9799;48.214;16.388;2023-04-06T02:17:20;4.80;82.80
19330;DHT22;9799;48.214;16.388;2023-04-06T02:20:41;4.90;82.70
19330;DHT22;9799;48.214;16.388;2023-04-06T02:24:02;4.90;83.30
19330;DHT22;9799;48.214;16.388;2023-04-06T02:27:24;4.80;82.60
19330;DHT22;9799;48.214;16.388;2023-04-06T02:30:46;4.80;82.80
19330;DHT22;9799;48.214;16.388;2023-04-06T02:34:07;4.80;82.60
19330;DHT22;9799;48.214;16.388;2023-04-06T02:37:31;4.80;82.70
19330;DHT22;9799;48.214;16.388;2023-04-06T02:40:52;4.70;82.50
19330;DHT22;9799;48.214;16.388;2023-04-06T02:44:13;4.70;82.50
19330;DHT22;9799;48.214;16.388;2023-04-06T02:47:36;4.60;82.90
19330;DHT22;9799;48.214;16.388;2023-04-06T02:50:57;4.60;82.90
19330;DHT22;9799;48.214;16.388;2023-04-06T02:54:18;4.60;83.00
19330;DHT22;9799;48.214;16.388;2023-04-06T02:57:39;4.60;82.70
19330;DHT22;9799;48.214;16.388;2023-04-06T03:01:01;4.50;83.40
19330;DHT22;9799;48.214;16.388;2023-04-06T03:04:23;4.40;83.20
19330;DHT22;9799;48.214;16.388;2023-04-06T03:07:45;4.40;83.30
19330;DHT22;9799;48.214;16.388;2023-04-06T03:11:06;4.30;83.50
19330;DHT22;9799;48.214;16.388;2023-04-06T03:14:28;4.30;84.10
19330;DHT22;9799;48.214;16.388;2023-04-06T03:17:49;4.40;84.00
19330;DHT22;9799;48.214;16.388;2023-04-06T03:21:12;4.20;84.10
19330;DHT22;9799;48.214;16.388;2023-04-06T03:24:34;4.10;84.40
19330;DHT22;9799;48.214;16.388;2023-04-06T03:27:56;4.20;83.90
19330;DHT22;9799;48.214;16.388;2023-04-06T03:31:17;4.20;83.70
19330;DHT22;9799;48.214;16.388;2023-04-06T03:34:38;4.30;83.80
19330;DHT22;9799;48.214;16.388;2023-04-06T03:38:00;4.30;83.90
19330;DHT22;9799;48.214;16.388;2023-04-06T03:41:22;4.10;84.00
19330;DHT22;9799;48.214;16.388;2023-04-06T03:44:43;4.20;84.00
19330;DHT22;9799;48.214;16.388;2023-04-06T03:48:05;4.00;84.40
19330;DHT22;9799;48.214;16.388;2023-04-06T03:51:27;4.20;84.10
19330;DHT22;9799;48.214;16.388;2023-04-06T03:54:49;4.30;84.00
19330;DHT22;9799;48.214;16.388;2023-04-06T03:58:10;4.20;84.00
19330;DHT22;9799;48.214;16.388;2023-04-06T04:01:32;4.20;84.10
19330;DHT22;9799;48.214;16.388;2023-04-06T04:04:52;4.10;84.60
19330;DHT22;9799;48.214;16.388;2023-04-06T04:08:14;4.10;84.80
19330;DHT22;9799;48.214;16.388;2023-04-06T04:11:36;4.10;85.00
19330;DHT22;9799;48.214;16.388;2023-04-06T04:14:57;4.10;84.70
19330;DHT22;9799;48.214;16.388;2023-04-06T04:18:19;4.10;84.90
19330;DHT22;9799;48.214;16.388;2023-04-06T04:21:44;4.20;84.40
19330;DHT22;9799;48.214;16.388;2023-04-06T04:25:06;4.00;84.70
19330;DHT22;9799;48.214;16.388;2023-04-06T04:28:28;4.00;85.00
19330;DHT22;9799;48.214;16.388;2023-04-06T04:31:50;4.00;85.20
19330;DHT22;9799;48.214;16.388;2023-04-06T04:35:11;4.00;85.10
19330;DHT22;9799;48.214;16.388;2023-04-06T04:38:33;4.00;85.30
19330;DHT22;9799;48.214;16.388;2023-04-06T04:41:54;3.90;85.70
19330;DHT22;9799;48.214;16.388;2023-04-06T04:45:17;4.00;85.60
19330;DHT22;9799;48.214;16.388;2023-04-06T04:48:37;4.00;86.10
19330;DHT22;9799;48.214;16.388;2023-04-06T04:51:59;3.90;86.30
19330;DHT22;9799;48.214;16.388;2023-04-06T04:55:20;3.90;86.80
19330;DHT22;9799;48.214;16.388;2023-04-06T04:58:41;4.00;86.70
19330;DHT22;9799;48.214;16.388;2023-04-06T05:02:04;4.00;86.80
19330;DHT22;9799;48.214;16.388;2023-04-06T05:05:25;4.00;86.90
19330;DHT22;9799;48.214;16.388;2023-04-06T05:08:46;4.10;86.90
19330;DHT22;9799;48.214;16.388;2023-04-06T05:12:08;4.10;87.40
19330;DHT22;9799;48.214;16.388;2023-04-06T05:15:29;4.00;86.80
19330;DHT22;9799;48.214;16.388;2023-04-06T05:18:52;4.10;87.00
19330;DHT22;9799;48.214;16.388;2023-04-06T05:22:16;4.10;87.00
19330;DHT22;9799;48.214;16.388;2023-04-06T05:25:37;4.20;87.10
19330;DHT22;9799;48.214;16.388;2023-04-06T05:28:58;4.20;87.10
19330;DHT22;9799;48.214;16.388;2023-04-06T05:32:20;4.30;87.20
19330;DHT22;9799;48.214;16.388;2023-04-06T05:35:43;4.50;86.80
19330;DHT22;9799;48.214;16.388;2023-04-06T05:39:05;4.60;86.90
19330;DHT22;9799;48.214;16.388;2023-04-06T05:42:26;4.60;86.70
19330;DHT22;9799;48.214;16.388;2023-04-06T05:45:47;4.70;86.30
19330;DHT22;9799;48.214;16.388;2023-04-06T05:49:08;4.60;86.40
19330;DHT22;9799;48.214;16.388;2023-04-06T05:52:30;4.40;86.80
19330;DHT22;9799;48.214;16.388;2023-04-06T05:55:51;4.50;86.90
19330;DHT22;9799;48.214;16.388;2023-04-06T05:59:13;4.70;86.40
19330;DHT22;9799;48.214;16.388;2023-04-06T06:02:35;4.70;86.20
19330;DHT22;9799;48.214;16.388;2023-04-06T06:05:59;5.00;86.10
19330;DHT22;9799;48.214;16.388;2023-04-06T06:09:22;5.00;86.10
19330;DHT22;9799;48.214;16.388;2023-04-06T06:12:43;5.10;86.00
19330;DHT22;9799;48.214;16.388;2023-04-06T06:16:05;5.10;86.30
19330;DHT22;9799;48.214;16.388;2023-04-06T06:19:26;5.10;86.10
19330;DHT22;9799;48.214;16.388;2023-04-06T06:22:47;5.10;86.40
19330;DHT22;9799;48.214;16.388;2023-04-06T06:26:10;5.30;86.00
19330;DHT22;9799;48.214;16.388;2023-04-06T06:29:31;5.30;85.80
19330;DHT22;9799;48.214;16.388;2023-04-06T06:32:52;5.20;86.00
19330;DHT22;9799;48.214;16.388;2023-04-06T06:36:14;5.20;86.40
19330;DHT22;9799;48.214;16.388;2023-04-06T06:39:35;5.20;86.90
19330;DHT22;9799;48.214;16.388;2023-04-06T06:42:57;5.30;87.10
19330;DHT22;9799;48.214;16.388;2023-04-06T06:46:19;5.20;87.10
19330;DHT22;9799;48.214;16.388;2023-04-06T06:49:41;5.10;87.60
19330;DHT22;9799;48.214;16.388;2023-04-06T06:53:02;5.10;87.80
19330;DHT22;9799;48.214;16.388;2023-04-06T06:56:23;5.20;88.10
19330;DHT22;9799;48.214;16.388;2023-04-06T06:59:47;5.20;88.20
19330;DHT22;9799;48.214;16.388;2023-04-06T07:03:08;5.20;88.50
19330;DHT22;9799;48.214;16.388;2023-04-06T07:06:29;5.30;88.80
19330;DHT22;9799;48.214;16.388;2023-04-06T07:09:50;5.50;88.60
19330;DHT22;9799;48.214;16.388;2023-04-06T07:13:11;5.60;88.30
19330;DHT22;9799;48.214;16.388;2023-04-06T07:16:39;5.50;88.70
19330;DHT22;9799;48.214;16.388;2023-04-06T07:20:01;5.60;88.90
19330;DHT22;9799;48.214;16.388;2023-04-06T07:23:22;5.70;89.80
19330;DHT22;9799;48.214;16.388;2023-04-06T07:26:43;5.80;89.30
19330;DHT22;9799;48.214;16.388;2023-04-06T07:30:05;6.10;89.00
19330;DHT22;9799;48.214;16.388;2023-04-06T07:33:28;6.20;88.40
19330;DHT22;9799;48.214;16.388;2023-04-06T07:36:49;6.50;88.40
19330;DHT22;9799;48.214;16.388;2023-04-06T07:40:12;6.60;87.30
19330;DHT22;9799;48.214;16.388;2023-04-06T07:43:33;6.60;87.20
19330;DHT22;9799;48.214;16.388;2023-04-06T07:46:55;6.70;87.00
19330;DHT22;9799;48.214;16.388;2023-04-06T07:50:17;6.70;86.30
19330;DHT22;9799;48.214;16.388;2023-04-06T07:53:38;6.80;85.90
19330;DHT22;9799;48.214;16.388;2023-04-06T07:56:59;6.90;85.70
19330;DHT22;9799;48.214;16.388;2023-04-06T08:00:21;6.90;84.70
19330;DHT22;9799;48.214;16.388;2023-04-06T08:03:42;6.90;84.30
19330;DHT22;9799;48.214;16.388;2023-04-06T08:07:05;7.00;83.60
19330;DHT22;9799;48.214;16.388;2023-04-06T08:10:26;7.30;82.70
19330;DHT22;9799;48.214;16.388;2023-04-06T08:13:47;7.50;81.60
19330;DHT22;9799;48.214;16.388;2023-04-06T08:17:08;7.60;82.20
19330;DHT22;9799;48.214;16.388;2023-04-06T08:20:30;7.50;82.90
19330;DHT22;9799;48.214;16.388;2023-04-06T08:23:52;7.40;82.20
19330;DHT22;9799;48.214;16.388;2023-04-06T08:27:13;7.40;82.10
19330;DHT22;9799;48.214;16.388;2023-04-06T08:30:35;7.50;82.00
19330;DHT22;9799;48.214;16.388;2023-04-06T08:33:57;7.50;81.40
19330;DHT22;9799;48.214;16.388;2023-04-06T08:37:18;7.80;80.90
19330;DHT22;9799;48.214;16.388;2023-04-06T08:40:40;7.90;80.30
19330;DHT22;9799;48.214;16.388;2023-04-06T08:44:04;8.00;80.90
19330;DHT22;9799;48.214;16.388;2023-04-06T08:47:25;7.90;80.10
19330;DHT22;9799;48.214;16.388;2023-04-06T08:50:47;8.00;79.50
19330;DHT22;9799;48.214;16.388;2023-04-06T08:54:08;8.00;79.90
19330;DHT22;9799;48.214;16.388;2023-04-06T08:57:31;8.10;80.20
19330;DHT22;9799;48.214;16.388;2023-04-06T09:00:52;8.30;80.60
19330;DHT22;9799;48.214;16.388;2023-04-06T09:04:14;8.30;80.70
19330;DHT22;9799;48.214;16.388;2023-04-06T09:07:35;8.30;80.70
19330;DHT22;9799;48.214;16.388;2023-04-06T09:10:57;8.40;80.90
19330;DHT22;9799;48.214;16.388;2023-04-06T09:14:33;8.30;81.20
19330;DHT22;9799;48.214;16.388;2023-04-06T09:17:55;8.60;80.60
19330;DHT22;9799;48.214;16.388;2023-04-06T09:21:17;8.40;80.70
19330;DHT22;9799;48.214;16.388;2023-04-06T09:24:40;8.30;81.00
19330;DHT22;9799;48.214;16.388;2023-04-06T09:28:02;8.40;80.00
19330;DHT22;9799;48.214;16.388;2023-04-06T09:31:26;8.50;78.40
19330;DHT22;9799;48.214;16.388;2023-04-06T09:34:48;8.50;78.50
19330;DHT22;9799;48.214;16.388;2023-04-06T09:38:11;8.80;76.90
19330;DHT22;9799;48.214;16.388;2023-04-06T09:41:33;8.60;76.20
19330;DHT22;9799;48.214;16.388;2023-04-06T09:44:55;8.90;76.30
19330;DHT22;9799;48.214;16.388;2023-04-06T09:48:18;9.20;75.40
19330;DHT22;9799;48.214;16.388;2023-04-06T09:51:43;9.20;74.40
19330;DHT22;9799;48.214;16.388;2023-04-06T09:55:06;9.00;75.50
19330;DHT22;9799;48.214;16.388;2023-04-06T09:58:33;9.00;74.00
19330;DHT22;9799;48.214;16.388;2023-04-06T10:01:56;8.70;74.70
19330;DHT22;9799;48.214;16.388;2023-04-06T10:05:26;8.60;73.70
19330;DHT22;9799;48.214;16.388;2023-04-06T10:08:50;8.70;73.50
19330;DHT22;9799;48.214;16.388;2023-04-06T10:12:15;9.00;72.70
19330;DHT22;9799;48.214;16.388;2023-04-06T10:15:38;9.30;71.00
19330;DHT22;9799;48.214;16.388;2023-04-06T10:19:06;9.40;69.70
19330;DHT22;9799;48.214;16.388;2023-04-06T10:22:35;9.50;69.60
19330;DHT22;9799;48.214;16.388;2023-04-06T10:25:59;10.10;68.60
19330;DHT22;9799;48.214;16.388;2023-04-06T10:29:21;9.80;68.50
19330;DHT22;9799;48.214;16.388;2023-04-06T10:32:42;10.00;67.90
19330;DHT22;9799;48.214;16.388;2023-04-06T10:36:13;10.10;67.40
19330;DHT22;9799;48.214;16.388;2023-04-06T10:39:45;10.00;67.70
19330;DHT22;9799;48.214;16.388;2023-04-06T10:43:08;9.80;67.80
19330;DHT22;9799;48.214;16.388;2023-04-06T10:46:31;9.70;67.20
19330;DHT22;9799;48.214;16.388;2023-04-06T10:49:52;9.60;68.00
19330;DHT22;9799;48.214;16.388;2023-04-06T10:53:21;9.90;68.10
19330;DHT22;9799;48.214;16.388;2023-04-06T10:56:44;9.90;67.70
19330;DHT22;9799;48.214;16.388;2023-04-06T11:00:06;9.70;67.80
19330;DHT22;9799;48.214;16.388;2023-04-06T11:03:27;9.90;67.00
19330;DHT22;9799;48.214;16.388;2023-04-06T11:06:49;10.00;66.50
19330;DHT22;9799;48.214;16.388;2023-04-06T11:10:10;10.20;66.60
19330;DHT22;9799;48.214;16.388;2023-04-06T11:13:39;9.90;67.10
19330;DHT22;9799;48.214;16.388;2023-04-06T11:17:00;10.10;67.00
19330;DHT22;9799;48.214;16.388;2023-04-06T11:20:21;10.30;66.60
19330;DHT22;9799;48.214;16.388;2023-04-06T11:23:42;10.40;65.50
19330;DHT22;9799;48.214;16.388;2023-04-06T11:27:03;10.30;65.30
19330;DHT22;9799;48.214;16.388;2023-04-06T11:30:26;10.40;65.30
19330;DHT22;9799;48.214;16.388;2023-04-06T11:33:55;10.30;66.00
19330;DHT22;9799;48.214;16.388;2023-04-06T11:37:17;10.40;65.00
19330;DHT22;9799;48.214;16.388;2023-04-06T11:40:38;10.30;65.40
19330;DHT22;9799;48.214;16.388;2023-04-06T11:44:01;11.20;63.00
19330;DHT22;9799;48.214;16.388;2023-04-06T11:47:29;10.60;63.90
19330;DHT22;9799;48.214;16.388;2023-04-06T11:50:55;10.60;64.50
19330;DHT22;9799;48.214;16.388;2023-04-06T11:54:16;10.80;64.50
19330;DHT22;9799;48.214;16.388;2023-04-06T11:57:37;11.00;64.00
19330;DHT22;9799;48.214;16.388;2023-04-06T12:01:03;11.00;63.60
19330;DHT22;9799;48.214;16.388;2023-04-06T12:04:26;10.90;64.10
19330;DHT22;9799;48.214;16.388;2023-04-06T12:07:47;10.70;63.30
19330;DHT22;9799;48.214;16.388;2023-04-06T12:11:09;10.50;62.90
19330;DHT22;9799;48.214;16.388;2023-04-06T12:14:31;10.80;62.80
19330;DHT22;9799;48.214;16.388;2023-04-06T12:17:52;10.70;62.80
19330;DHT22;9799;48.214;16.388;2023-04-06T12:21:14;10.80;62.70
19330;DHT22;9799;48.214;16.388;2023-04-06T12:24:35;10.90;62.70
19330;DHT22;9799;48.214;16.388;2023-04-06T12:27:56;11.20;62.60
19330;DHT22;9799;48.214;16.388;2023-04-06T12:31:19;11.20;62.50
19330;DHT22;9799;48.214;16.388;2023-04-06T12:34:40;11.10;62.80
19330;DHT22;9799;48.214;16.388;2023-04-06T12:38:03;11.30;62.10
19330;DHT22;9799;48.214;16.388;2023-04-06T12:41:24;11.10;62.10
19330;DHT22;9799;48.214;16.388;2023-04-06T12:44:45;11.10;62.20
19330;DHT22;9799;48.214;16.388;2023-04-06T12:48:07;11.00;62.60
19330;DHT22;9799;48.214;16.388;2023-04-06T12:51:28;10.90;62.00
19330;DHT22;9799;48.214;16.388;2023-04-06T12:54:50;10.90;61.80
19330;DHT22;9799;48.214;16.388;2023-04-06T12:58:12;10.80;61.90
19330;DHT22;9799;48.214;16.388;2023-04-06T13:01:33;10.90;62.00
19330;DHT22;9799;48.214;16.388;2023-04-06T13:04:55;11.00;61.90
19330;DHT22;9799;48.214;16.388;2023-04-06T13:08:17;10.80;62.10
19330;DHT22;9799;48.214;16.388;2023-04-06T13:11:39;10.90;62.40
19330;DHT22;9799;48.214;16.388;2023-04-06T13:15:01;11.00;61.70
19330;DHT22;9799;48.214;16.388;2023-04-06T13:18:22;11.00;61.70
19330;DHT22;9799;48.214;16.388;2023-04-06T13:21:43;10.90;61.40
19330;DHT22;9799;48.214;16.388;2023-04-06T13:25:05;11.00;61.70
19330;DHT22;9799;48.214;16.388;2023-04-06T13:28:28;11.10;60.90
19330;DHT22;9799;48.214;16.388;2023-04-06T13:31:48;11.00;60.90
19330;DHT22;9799;48.214;16.388;2023-04-06T13:35:10;11.10;61.10
19330;DHT22;9799;48.214;16.388;2023-04-06T13:38:31;11.20;61.20
19330;DHT22;9799;48.214;16.388;2023-04-06T13:41:53;11.20;61.20
19330;DHT22;9799;48.214;16.388;2023-04-06T13:45:17;11.30;61.70
19330;DHT22;9799;48.214;16.388;2023-04-06T13:48:38;11.30;60.60
19330;DHT22;9799;48.214;16.388;2023-04-06T13:51:59;11.20;60.70
19330;DHT22;9799;48.214;16.388;2023-04-06T13:55:21;11.30;60.90
19330;DHT22;9799;48.214;16.388;2023-04-06T13:58:43;11.40;61.20
19330;DHT22;9799;48.214;16.388;2023-04-06T14:02:07;11.40;61.70
19330;DHT22;9799;48.214;16.388;2023-04-06T14:05:31;11.30;62.10
19330;DHT22;9799;48.214;16.388;2023-04-06T14:08:52;11.30;60.90
19330;DHT22;9799;48.214;16.388;2023-04-06T14:12:13;11.20;60.70
19330;DHT22;9799;48.214;16.388;2023-04-06T14:15:34;11.30;61.50
19330;DHT22;9799;48.214;16.388;2023-04-06T14:18:57;11.20;62.20
19330;DHT22;9799;48.214;16.388;2023-04-06T14:22:18;11.30;62.30
19330;DHT22;9799;48.214;16.388;2023-04-06T14:25:40;11.40;61.90
19330;DHT22;9799;48.214;16.388;2023-04-06T14:29:02;11.60;61.50
19330;DHT22;9799;48.214;16.388;2023-04-06T14:32:23;11.50;61.80
19330;DHT22;9799;48.214;16.388;2023-04-06T14:35:46;11.40;62.30
19330;DHT22;9799;48.214;16.388;2023-04-06T14:39:08;11.30;62.50
19330;DHT22;9799;48.214;16.388;2023-04-06T14:42:30;11.30;62.60
19330;DHT22;9799;48.214;16.388;2023-04-06T14:45:51;11.20;63.10
19330;DHT22;9799;48.214;16.388;2023-04-06T14:49:12;11.30;62.80
19330;DHT22;9799;48.214;16.388;2023-04-06T14:52:35;11.30;62.50
19330;DHT22;9799;48.214;16.388;2023-04-06T14:55:56;11.20;63.00
19330;DHT22;9799;48.214;16.388;2023-04-06T14:59:17;11.20;63.00
19330;DHT22;9799;48.214;16.388;2023-04-06T15:02:39;11.20;63.10
19330;DHT22;9799;48.214;16.388;2023-04-06T15:06:02;11.20;62.80
19330;DHT22;9799;48.214;16.388;2023-04-06T15:09:26;11.20;63.00
19330;DHT22;9799;48.214;16.388;2023-04-06T15:12:47;11.20;63.10
19330;DHT22;9799;48.214;16.388;2023-04-06T15:16:08;11.20;62.80
19330;DHT22;9799;48.214;16.388;2023-04-06T15:19:33;11.10;62.80
19330;DHT22;9799;48.214;16.388;2023-04-06T15:22:54;11.10;63.00
19330;DHT22;9799;48.214;16.388;2023-04-06T15:26:16;11.10;63.40
19330;DHT22;9799;48.214;16.388;2023-04-06T15:29:37;11.10;62.90
19330;DHT22;9799;48.214;16.388;2023-04-06T15:32:59;11.20;63.20
19330;DHT22;9799;48.214;16.388;2023-04-06T15:36:26;11.30;63.30
19330;DHT22;9799;48.214;16.388;2023-04-06T15:39:48;11.20;63.20
19330;DHT22;9799;48.214;16.388;2023-04-06T15:43:11;11.20;63.30
19330;DHT22;9799;48.214;16.388;2023-04-06T15:46:32;11.00;63.20
19330;DHT22;9799;48.214;16.388;2023-04-06T15:49:53;11.10;64.00
19330;DHT22;9799;48.214;16.388;2023-04-06T15:53:15;11.10;63.10
19330;DHT22;9799;48.214;16.388;2023-04-06T15:56:36;11.00;62.80
19330;DHT22;9799;48.214;16.388;2023-04-06T15:59:59;11.00;63.50
19330;DHT22;9799;48.214;16.388;2023-04-06T16:03:20;10.90;63.30
19330;DHT22;9799;48.214;16.388;2023-04-06T16:06:42;10.90;63.40
19330;DHT22;9799;48.214;16.388;2023-04-06T16:10:03;10.90;63.40
19330;DHT22;9799;48.214;16.388;2023-04-06T16:13:26;11.00;63.80
19330;DHT22;9799;48.214;16.388;2023-04-06T16:16:48;11.00;64.00
19330;DHT22;9799;48.214;16.388;2023-04-06T16:20:10;10.80;62.80
19330;DHT22;9799;48.214;16.388;2023-04-06T16:23:34;10.80;63.10
19330;DHT22;9799;48.214;16.388;2023-04-06T16:26:55;10.80;63.30
19330;DHT22;9799;48.214;16.388;2023-04-06T16:30:17;10.80;63.70
19330;DHT22;9799;48.214;16.388;2023-04-06T16:33:40;10.70;63.90
19330;DHT22;9799;48.214;16.388;2023-04-06T16:37:01;10.70;64.10
19330;DHT22;9799;48.214;16.388;2023-04-06T16:40:23;10.60;64.30
19330;DHT22;9799;48.214;16.388;2023-04-06T16:43:44;10.60;64.40
19330;DHT22;9799;48.214;16.388;2023-04-06T16:47:06;10.60;64.60
19330;DHT22;9799;48.214;16.388;2023-04-06T16:50:29;10.50;64.40
19330;DHT22;9799;48.214;16.388;2023-04-06T16:53:50;10.50;64.70
19330;DHT22;9799;48.214;16.388;2023-04-06T16:57:11;10.30;64.30
19330;DHT22;9799;48.214;16.388;2023-04-06T17:00:35;10.30;64.50
19330;DHT22;9799;48.214;16.388;2023-04-06T17:03:56;10.30;64.70
19330;DHT22;9799;48.214;16.388;2023-04-06T17:07:19;10.30;64.80
19330;DHT22;9799;48.214;16.388;2023-04-06T17:10:44;10.20;64.80
19330;DHT22;9799;48.214;16.388;2023-04-06T17:14:06;10.20;64.90
19330;DHT22;9799;48.214;16.388;2023-04-06T17:17:28;10.20;65.00
19330;DHT22;9799;48.214;16.388;2023-04-06T17:20:49;10.20;65.30
19330;DHT22;9799;48.214;16.388;2023-04-06T17:24:11;10.10;65.20
19330;DHT22;9799;48.214;16.388;2023-04-06T17:27:33;10.10;65.20
19330;DHT22;9799;48.214;16.388;2023-04-06T17:30:54;10.10;65.40
19330;DHT22;9799;48.214;16.388;2023-04-06T17:34:15;10.10;65.80
19330;DHT22;9799;48.214;16.388;2023-04-06T17:37:36;10.00;65.90
19330;DHT22;9799;48.214;16.388;2023-04-06T17:40:59;10.00;65.90
19330;DHT22;9799;48.214;16.388;2023-04-06T17:44:23;9.90;66.00
19330;DHT22;9799;48.214;16.388;2023-04-06T17:47:44;10.00;66.20
19330;DHT22;9799;48.214;16.388;2023-04-06T17:51:06;9.90;66.30
19330;DHT22;9799;48.214;16.388;2023-04-06T17:54:27;9.90;66.20
19330;DHT22;9799;48.214;16.388;2023-04-06T17:57:49;9.90;66.50
19330;DHT22;9799;48.214;16.388;2023-04-06T18:01:10;9.90;66.70
19330;DHT22;9799;48.214;16.388;2023-04-06T18:04:33;9.90;66.80
19330;DHT22;9799;48.214;16.388;2023-04-06T18:07:54;9.80;66.80
19330;DHT22;9799;48.214;16.388;2023-04-06T18:11:16;9.90;66.90
19330;DHT22;9799;48.214;16.388;2023-04-06T18:14:39;9.80;67.10
19330;DHT22;9799;48.214;16.388;2023-04-06T18:18:01;9.80;67.30
19330;DHT22;9799;48.214;16.388;2023-04-06T18:21:22;9.90;67.30
19330;DHT22;9799;48.214;16.388;2023-04-06T18:24:44;9.80;67.10
19330;DHT22;9799;48.214;16.388;2023-04-06T18:28:05;9.70;67.40
19330;DHT22;9799;48.214;16.388;2023-04-06T18:31:27;9.70;67.80
19330;DHT22;9799;48.214;16.388;2023-04-06T18:34:49;9.70;68.10
19330;DHT22;9799;48.214;16.388;2023-04-06T18:38:10;9.70;68.00
19330;DHT22;9799;48.214;16.388;2023-04-06T18:41:32;9.60;68.30
19330;DHT22;9799;48.214;16.388;2023-04-06T18:44:54;9.70;68.40
19330;DHT22;9799;48.214;16.388;2023-04-06T18:48:16;9.80;68.00
19330;DHT22;9799;48.214;16.388;2023-04-06T18:51:37;9.70;68.10
19330;DHT22;9799;48.214;16.388;2023-04-06T18:55:02;9.70;68.30
19330;DHT22;9799;48.214;16.388;2023-04-06T18:58:24;9.60;68.30
19330;DHT22;9799;48.214;16.388;2023-04-06T19:01:45;9.50;68.40
19330;DHT22;9799;48.214;16.388;2023-04-06T19:05:11;9.40;68.60
19330;DHT22;9799;48.214;16.388;2023-04-06T19:08:33;9.50;68.80
19330;DHT22;9799;48.214;16.388;2023-04-06T19:11:54;9.50;68.70
19330;DHT22;9799;48.214;16.388;2023-04-06T19:15:16;9.50;68.70
19330;DHT22;9799;48.214;16.388;2023-04-06T19:18:38;9.50;68.80
19330;DHT22;9799;48.214;16.388;2023-04-06T19:22:02;9.50;69.00
19330;DHT22;9799;48.214;16.388;2023-04-06T19:25:23;9.40;68.90
19330;DHT22;9799;48.214;16.388;2023-04-06T19:28:45;9.40;69.20
19330;DHT22;9799;48.214;16.388;2023-04-06T19:32:07;9.30;69.70
19330;DHT22;9799;48.214;16.388;2023-04-06T19:35:30;9.40;69.30
19330;DHT22;9799;48.214;16.388;2023-04-06T19:38:53;9.40;69.20
19330;DHT22;9799;48.214;16.388;2023-04-06T19:42:14;9.30;69.00
19330;DHT22;9799;48.214;16.388;2023-04-06T19:45:35;9.30;69.10
19330;DHT22;9799;48.214;16.388;2023-04-06T19:48:56;9.30;68.90
19330;DHT22;9799;48.214;16.388;2023-04-06T19:52:18;9.20;68.90
19330;DHT22;9799;48.214;16.388;2023-04-06T19:55:41;9.20;69.00
19330;DHT22;9799;48.214;16.388;2023-04-06T19:59:02;9.10;68.90
19330;DHT22;9799;48.214;16.388;2023-04-06T20:02:23;9.10;69.10
19330;DHT22;9799;48.214;16.388;2023-04-06T20:05:45;9.10;69.10
19330;DHT22;9799;48.214;16.388;2023-04-06T20:09:06;9.10;69.10
19330;DHT22;9799;48.214;16.388;2023-04-06T20:12:29;9.10;69.10
19330;DHT22;9799;48.214;16.388;2023-04-06T20:15:50;9.10;69.80
19330;DHT22;9799;48.214;16.388;2023-04-06T20:19:12;9.00;69.30
19330;DHT22;9799;48.214;16.388;2023-04-06T20:22:33;9.10;69.20
19330;DHT22;9799;48.214;16.388;2023-04-06T20:25:55;9.10;69.30
19330;DHT22;9799;48.214;16.388;2023-04-06T20:29:17;9.10;69.20
19330;DHT22;9799;48.214;16.388;2023-04-06T20:32:38;9.10;69.30
19330;DHT22;9799;48.214;16.388;2023-04-06T20:36:00;9.00;69.50
19330;DHT22;9799;48.214;16.388;2023-04-06T20:39:21;9.00;69.50
19330;DHT22;9799;48.214;16.388;2023-04-06T20:42:42;9.00;69.60
19330;DHT22;9799;48.214;16.388;2023-04-06T20:46:05;9.00;69.70
19330;DHT22;9799;48.214;16.388;2023-04-06T20:49:27;9.00;69.70
19330;DHT22;9799;48.214;16.388;2023-04-06T20:52:49;9.00;69.60
19330;DHT22;9799;48.214;16.388;2023-04-06T20:56:10;9.00;69.50
19330;DHT22;9799;48.214;16.388;2023-04-06T20:59:31;8.90;69.30
19330;DHT22;9799;48.214;16.388;2023-04-06T21:02:53;9.00;69.30
19330;DHT22;9799;48.214;16.388;2023-04-06T21:06:14;8.90;69.60
19330;DHT22;9799;48.214;16.388;2023-04-06T21:09:36;8.90;69.50
19330;DHT22;9799;48.214;16.388;2023-04-06T21:12:58;8.80;69.80
19330;DHT22;9799;48.214;16.388;2023-04-06T21:16:19;8.80;70.00
19330;DHT22;9799;48.214;16.388;2023-04-06T21:19:41;8.90;70.40
19330;DHT22;9799;48.214;16.388;2023-04-06T21:23:02;8.90;70.50
19330;DHT22;9799;48.214;16.388;2023-04-06T21:26:24;8.80;70.70
19330;DHT22;9799;48.214;16.388;2023-04-06T21:29:45;8.70;71.00
19330;DHT22;9799;48.214;16.388;2023-04-06T21:33:06;8.70;71.50